Morgan Heights, Missouri
Current Conditions -  °F | °C
As of 3:53 AM on Tuesday 27 Jan 2015 (Local Time) from KJLN Reporting Station
Clear Clear  
Wind Chill: 38°   Ceiling: Unl
Heat Index: 38°   Visibility: 10mi
Dew Point: 32°   Wind: 3mph
Humidity: 79%   Direction: 10°N
Pressure: 30.07"   Gusts: NA
Location:  37.1542°N, 94.2882°W
Report Text: KJLN 270953Z AUTO 01003KT 10SM CLR 03/00 A3007 RMK AO2 SLP184 T00330000
Loading
Personal Weather Stations






























Interactive Weather Map New forecast layout! Learn more

10-Day Weather Forecast

Advertisements
Track Severe Weather on mobile